sensor_id;sensor_type;location;lat;lon;timestamp;P1;durP1;ratioP1;P2;durP2;ratioP2
82871;SDS011;72646;43.596;1.428;2024-03-02T00:02:12;10.45;;;4.60;;
82871;SDS011;72646;43.596;1.428;2024-03-02T00:04:39;9.75;;;4.07;;
82871;SDS011;72646;43.596;1.428;2024-03-02T00:07:04;8.55;;;4.00;;
82871;SDS011;72646;43.596;1.428;2024-03-02T00:09:32;9.25;;;4.13;;
82871;SDS011;72646;43.596;1.428;2024-03-02T00:11:58;9.75;;;4.50;;
82871;SDS011;72646;43.596;1.428;2024-03-02T00:14:25;9.40;;;4.43;;
82871;SDS011;72646;43.596;1.428;2024-03-02T00:16:51;9.52;;;4.15;;
82871;SDS011;72646;43.596;1.428;2024-03-02T00:19:16;10.60;;;4.70;;
82871;SDS011;72646;43.596;1.428;2024-03-02T00:21:42;9.63;;;4.25;;
82871;SDS011;72646;43.596;1.428;2024-03-02T00:24:18;9.43;;;4.70;;
82871;SDS011;72646;43.596;1.428;2024-03-02T00:26:49;10.02;;;4.57;;
82871;SDS011;72646;43.596;1.428;2024-03-02T00:29:15;9.70;;;4.22;;
82871;SDS011;72646;43.596;1.428;2024-03-02T00:31:43;9.52;;;4.32;;
82871;SDS011;72646;43.596;1.428;2024-03-02T00:34:09;9.07;;;4.43;;
82871;SDS011;72646;43.596;1.428;2024-03-02T00:36:41;8.70;;;4.40;;
82871;SDS011;72646;43.596;1.428;2024-03-02T00:39:07;8.40;;;3.95;;
82871;SDS011;72646;43.596;1.428;2024-03-02T00:41:33;9.95;;;4.15;;
82871;SDS011;72646;43.596;1.428;2024-03-02T00:46:41;9.48;;;4.30;;
82871;SDS011;72646;43.596;1.428;2024-03-02T00:49:21;10.07;;;4.38;;
82871;SDS011;72646;43.596;1.428;2024-03-02T00:51:48;9.02;;;4.35;;
82871;SDS011;72646;43.596;1.428;2024-03-02T00:54:15;8.05;;;4.15;;
82871;SDS011;72646;43.596;1.428;2024-03-02T00:56:44;9.07;;;4.50;;
82871;SDS011;72646;43.596;1.428;2024-03-02T00:59:10;8.57;;;4.18;;
82871;SDS011;72646;43.596;1.428;2024-03-02T01:01:35;10.50;;;4.28;;
82871;SDS011;72646;43.596;1.428;2024-03-02T01:04:01;8.90;;;4.18;;
82871;SDS011;72646;43.596;1.428;2024-03-02T01:06:26;9.05;;;4.47;;
82871;SDS011;72646;43.596;1.428;2024-03-02T01:08:52;8.98;;;4.00;;
82871;SDS011;72646;43.596;1.428;2024-03-02T01:11:18;8.88;;;4.55;;
82871;SDS011;72646;43.596;1.428;2024-03-02T01:13:44;8.90;;;4.13;;
82871;SDS011;72646;43.596;1.428;2024-03-02T01:16:11;9.30;;;4.10;;
82871;SDS011;72646;43.596;1.428;2024-03-02T01:18:37;9.07;;;4.18;;
82871;SDS011;72646;43.596;1.428;2024-03-02T01:21:02;10.35;;;4.40;;
82871;SDS011;72646;43.596;1.428;2024-03-02T01:23:28;8.88;;;4.30;;
82871;SDS011;72646;43.596;1.428;2024-03-02T01:25:54;8.27;;;4.05;;
82871;SDS011;72646;43.596;1.428;2024-03-02T01:28:20;8.82;;;4.30;;
82871;SDS011;72646;43.596;1.428;2024-03-02T01:30:45;8.98;;;4.50;;
82871;SDS011;72646;43.596;1.428;2024-03-02T01:33:11;9.55;;;4.15;;
82871;SDS011;72646;43.596;1.428;2024-03-02T01:35:36;8.55;;;4.57;;
82871;SDS011;72646;43.596;1.428;2024-03-02T01:38:02;8.18;;;4.03;;
82871;SDS011;72646;43.596;1.428;2024-03-02T01:40:29;9.07;;;4.10;;
82871;SDS011;72646;43.596;1.428;2024-03-02T01:42:54;9.18;;;4.07;;
82871;SDS011;72646;43.596;1.428;2024-03-02T01:45:20;9.38;;;4.10;;
82871;SDS011;72646;43.596;1.428;2024-03-02T01:47:46;8.60;;;4.00;;
82871;SDS011;72646;43.596;1.428;2024-03-02T01:50:12;8.15;;;3.83;;
82871;SDS011;72646;43.596;1.428;2024-03-02T01:52:38;8.57;;;4.13;;
82871;SDS011;72646;43.596;1.428;2024-03-02T01:55:04;8.20;;;3.65;;
82871;SDS011;72646;43.596;1.428;2024-03-02T01:57:31;7.53;;;3.63;;
82871;SDS011;72646;43.596;1.428;2024-03-02T01:59:57;8.05;;;4.05;;
82871;SDS011;72646;43.596;1.428;2024-03-02T02:02:22;10.88;;;4.35;;
82871;SDS011;72646;43.596;1.428;2024-03-02T02:04:48;8.27;;;4.10;;
82871;SDS011;72646;43.596;1.428;2024-03-02T02:07:13;9.90;;;4.40;;
82871;SDS011;72646;43.596;1.428;2024-03-02T02:09:40;7.75;;;3.38;;
82871;SDS011;72646;43.596;1.428;2024-03-02T02:12:08;8.68;;;3.90;;
82871;SDS011;72646;43.596;1.428;2024-03-02T02:14:36;8.02;;;3.90;;
82871;SDS011;72646;43.596;1.428;2024-03-02T02:17:02;8.10;;;3.58;;
82871;SDS011;72646;43.596;1.428;2024-03-02T02:19:27;8.98;;;3.83;;
82871;SDS011;72646;43.596;1.428;2024-03-02T02:21:53;9.25;;;3.85;;
82871;SDS011;72646;43.596;1.428;2024-03-02T02:24:19;8.13;;;3.60;;
82871;SDS011;72646;43.596;1.428;2024-03-02T02:26:44;9.52;;;4.03;;
82871;SDS011;72646;43.596;1.428;2024-03-02T02:29:10;9.02;;;3.42;;
82871;SDS011;72646;43.596;1.428;2024-03-02T02:31:38;8.98;;;4.00;;
82871;SDS011;72646;43.596;1.428;2024-03-02T02:34:05;7.75;;;3.60;;
82871;SDS011;72646;43.596;1.428;2024-03-02T02:36:31;8.23;;;3.75;;
82871;SDS011;72646;43.596;1.428;2024-03-02T02:38:57;9.18;;;4.03;;
82871;SDS011;72646;43.596;1.428;2024-03-02T02:41:25;7.88;;;3.58;;
82871;SDS011;72646;43.596;1.428;2024-03-02T02:43:50;9.52;;;3.92;;
82871;SDS011;72646;43.596;1.428;2024-03-02T02:46:15;7.57;;;3.17;;
82871;SDS011;72646;43.596;1.428;2024-03-02T02:48:41;9.05;;;3.65;;
82871;SDS011;72646;43.596;1.428;2024-03-02T02:51:06;8.55;;;3.78;;
82871;SDS011;72646;43.596;1.428;2024-03-02T02:53:31;8.25;;;3.20;;
82871;SDS011;72646;43.596;1.428;2024-03-02T02:55:57;8.57;;;3.60;;
82871;SDS011;72646;43.596;1.428;2024-03-02T02:58:22;8.07;;;3.67;;
82871;SDS011;72646;43.596;1.428;2024-03-02T03:00:48;8.98;;;3.70;;
82871;SDS011;72646;43.596;1.428;2024-03-02T03:03:13;7.10;;;3.15;;
82871;SDS011;72646;43.596;1.428;2024-03-02T03:05:38;8.10;;;3.45;;
82871;SDS011;72646;43.596;1.428;2024-03-02T03:08:04;7.70;;;3.72;;
82871;SDS011;72646;43.596;1.428;2024-03-02T03:10:29;7.82;;;3.38;;
82871;SDS011;72646;43.596;1.428;2024-03-02T03:12:55;8.52;;;3.50;;
82871;SDS011;72646;43.596;1.428;2024-03-02T03:15:21;7.80;;;3.50;;
82871;SDS011;72646;43.596;1.428;2024-03-02T03:17:46;7.72;;;3.22;;
82871;SDS011;72646;43.596;1.428;2024-03-02T03:20:12;6.72;;;3.40;;
82871;SDS011;72646;43.596;1.428;2024-03-02T03:22:38;9.15;;;3.70;;
82871;SDS011;72646;43.596;1.428;2024-03-02T03:25:04;7.75;;;3.22;;
82871;SDS011;72646;43.596;1.428;2024-03-02T03:27:30;8.15;;;3.22;;
82871;SDS011;72646;43.596;1.428;2024-03-02T03:29:55;8.05;;;3.10;;
82871;SDS011;72646;43.596;1.428;2024-03-02T03:32:21;9.05;;;3.90;;
82871;SDS011;72646;43.596;1.428;2024-03-02T03:34:47;8.40;;;3.55;;
82871;SDS011;72646;43.596;1.428;2024-03-02T03:39:38;7.20;;;2.97;;
82871;SDS011;72646;43.596;1.428;2024-03-02T03:42:04;8.02;;;3.50;;
82871;SDS011;72646;43.596;1.428;2024-03-02T03:44:29;7.60;;;3.08;;
82871;SDS011;72646;43.596;1.428;2024-03-02T03:46:55;8.18;;;3.50;;
82871;SDS011;72646;43.596;1.428;2024-03-02T03:49:20;8.02;;;3.22;;
82871;SDS011;72646;43.596;1.428;2024-03-02T03:51:46;8.10;;;3.28;;
82871;SDS011;72646;43.596;1.428;2024-03-02T03:54:11;7.63;;;3.40;;
82871;SDS011;72646;43.596;1.428;2024-03-02T03:56:37;8.32;;;3.45;;
82871;SDS011;72646;43.596;1.428;2024-03-02T03:59:02;7.60;;;3.05;;
82871;SDS011;72646;43.596;1.428;2024-03-02T04:01:29;7.93;;;3.20;;
82871;SDS011;72646;43.596;1.428;2024-03-02T04:03:55;8.52;;;3.33;;
82871;SDS011;72646;43.596;1.428;2024-03-02T04:06:20;8.25;;;3.30;;
82871;SDS011;72646;43.596;1.428;2024-03-02T04:08:46;7.40;;;3.30;;
82871;SDS011;72646;43.596;1.428;2024-03-02T04:11:11;8.80;;;3.10;;
82871;SDS011;72646;43.596;1.428;2024-03-02T04:13:36;8.70;;;3.42;;
82871;SDS011;72646;43.596;1.428;2024-03-02T04:16:02;7.03;;;3.10;;
82871;SDS011;72646;43.596;1.428;2024-03-02T04:18:29;10.23;;;3.38;;
82871;SDS011;72646;43.596;1.428;2024-03-02T04:20:54;7.85;;;3.40;;
82871;SDS011;72646;43.596;1.428;2024-03-02T04:23:19;8.50;;;3.42;;
82871;SDS011;72646;43.596;1.428;2024-03-02T04:25:45;7.53;;;3.13;;
82871;SDS011;72646;43.596;1.428;2024-03-02T04:28:10;7.22;;;3.22;;
82871;SDS011;72646;43.596;1.428;2024-03-02T04:30:37;8.18;;;3.63;;
82871;SDS011;72646;43.596;1.428;2024-03-02T04:33:03;6.88;;;2.90;;
82871;SDS011;72646;43.596;1.428;2024-03-02T04:35:28;7.95;;;3.33;;
82871;SDS011;72646;43.596;1.428;2024-03-02T04:37:54;7.13;;;2.95;;
82871;SDS011;72646;43.596;1.428;2024-03-02T04:40:19;7.53;;;3.20;;
82871;SDS011;72646;43.596;1.428;2024-03-02T04:42:45;7.32;;;3.00;;
82871;SDS011;72646;43.596;1.428;2024-03-02T04:45:10;6.80;;;2.95;;
82871;SDS011;72646;43.596;1.428;2024-03-02T04:47:35;7.72;;;3.00;;
82871;SDS011;72646;43.596;1.428;2024-03-02T04:50:01;7.55;;;2.85;;
82871;SDS011;72646;43.596;1.428;2024-03-02T04:52:26;7.78;;;3.35;;
82871;SDS011;72646;43.596;1.428;2024-03-02T04:54:52;8.07;;;3.13;;
82871;SDS011;72646;43.596;1.428;2024-03-02T04:57:44;7.22;;;2.80;;
82871;SDS011;72646;43.596;1.428;2024-03-02T05:00:11;7.35;;;2.95;;
82871;SDS011;72646;43.596;1.428;2024-03-02T05:05:03;7.47;;;2.72;;
82871;SDS011;72646;43.596;1.428;2024-03-02T05:07:29;7.68;;;3.50;;
82871;SDS011;72646;43.596;1.428;2024-03-02T05:09:54;7.72;;;3.08;;
82871;SDS011;72646;43.596;1.428;2024-03-02T05:12:19;7.43;;;3.03;;
82871;SDS011;72646;43.596;1.428;2024-03-02T05:15:20;7.43;;;2.80;;
82871;SDS011;72646;43.596;1.428;2024-03-02T05:20:12;8.60;;;3.15;;
82871;SDS011;72646;43.596;1.428;2024-03-02T05:22:37;7.05;;;2.75;;
82871;SDS011;72646;43.596;1.428;2024-03-02T05:25:03;8.25;;;2.85;;
82871;SDS011;72646;43.596;1.428;2024-03-02T05:27:29;7.55;;;2.83;;
82871;SDS011;72646;43.596;1.428;2024-03-02T05:29:56;7.30;;;3.25;;
82871;SDS011;72646;43.596;1.428;2024-03-02T05:32:21;7.70;;;3.30;;
82871;SDS011;72646;43.596;1.428;2024-03-02T05:34:47;6.65;;;2.67;;
82871;SDS011;72646;43.596;1.428;2024-03-02T05:37:12;7.03;;;3.08;;
82871;SDS011;72646;43.596;1.428;2024-03-02T05:39:38;6.47;;;2.60;;
82871;SDS011;72646;43.596;1.428;2024-03-02T05:42:03;6.85;;;2.85;;
82871;SDS011;72646;43.596;1.428;2024-03-02T05:44:29;6.93;;;2.72;;
82871;SDS011;72646;43.596;1.428;2024-03-02T05:46:55;6.70;;;2.70;;
82871;SDS011;72646;43.596;1.428;2024-03-02T05:49:20;7.10;;;2.88;;
82871;SDS011;72646;43.596;1.428;2024-03-02T05:51:46;7.28;;;3.10;;
82871;SDS011;72646;43.596;1.428;2024-03-02T05:54:12;6.78;;;2.72;;
82871;SDS011;72646;43.596;1.428;2024-03-02T05:56:37;6.88;;;2.90;;
82871;SDS011;72646;43.596;1.428;2024-03-02T05:59:02;7.05;;;2.60;;
82871;SDS011;72646;43.596;1.428;2024-03-02T06:01:45;6.78;;;2.78;;
82871;SDS011;72646;43.596;1.428;2024-03-02T06:04:12;7.47;;;2.75;;
82871;SDS011;72646;43.596;1.428;2024-03-02T06:06:38;7.70;;;2.90;;
82871;SDS011;72646;43.596;1.428;2024-03-02T06:09:05;7.38;;;2.67;;
82871;SDS011;72646;43.596;1.428;2024-03-02T06:11:35;6.65;;;2.80;;
82871;SDS011;72646;43.596;1.428;2024-03-02T06:14:02;7.72;;;2.70;;
82871;SDS011;72646;43.596;1.428;2024-03-02T06:16:28;6.32;;;2.72;;
82871;SDS011;72646;43.596;1.428;2024-03-02T06:18:54;6.82;;;2.65;;
82871;SDS011;72646;43.596;1.428;2024-03-02T06:21:20;7.13;;;2.80;;
82871;SDS011;72646;43.596;1.428;2024-03-02T06:23:46;6.88;;;2.47;;
82871;SDS011;72646;43.596;1.428;2024-03-02T06:26:11;6.88;;;2.65;;
82871;SDS011;72646;43.596;1.428;2024-03-02T06:28:37;6.65;;;2.53;;
82871;SDS011;72646;43.596;1.428;2024-03-02T06:31:03;6.32;;;2.63;;
82871;SDS011;72646;43.596;1.428;2024-03-02T06:33:29;7.45;;;2.58;;
82871;SDS011;72646;43.596;1.428;2024-03-02T06:35:54;6.70;;;2.40;;
82871;SDS011;72646;43.596;1.428;2024-03-02T06:38:19;6.88;;;2.55;;
82871;SDS011;72646;43.596;1.428;2024-03-02T06:40:45;7.13;;;2.28;;
82871;SDS011;72646;43.596;1.428;2024-03-02T06:43:10;6.07;;;2.17;;
82871;SDS011;72646;43.596;1.428;2024-03-02T06:45:36;6.22;;;2.45;;
82871;SDS011;72646;43.596;1.428;2024-03-02T06:48:01;7.38;;;2.65;;
82871;SDS011;72646;43.596;1.428;2024-03-02T06:50:27;6.25;;;2.33;;
82871;SDS011;72646;43.596;1.428;2024-03-02T06:52:52;7.18;;;2.42;;
82871;SDS011;72646;43.596;1.428;2024-03-02T06:55:18;6.95;;;2.45;;
82871;SDS011;72646;43.596;1.428;2024-03-02T06:57:44;6.35;;;2.22;;
82871;SDS011;72646;43.596;1.428;2024-03-02T07:00:09;5.80;;;2.28;;
82871;SDS011;72646;43.596;1.428;2024-03-02T07:02:35;7.55;;;2.80;;
82871;SDS011;72646;43.596;1.428;2024-03-02T07:05:01;6.20;;;2.40;;
82871;SDS011;72646;43.596;1.428;2024-03-02T07:07:27;5.72;;;2.30;;
82871;SDS011;72646;43.596;1.428;2024-03-02T07:09:53;5.80;;;2.22;;
82871;SDS011;72646;43.596;1.428;2024-03-02T07:12:18;5.80;;;2.05;;
82871;SDS011;72646;43.596;1.428;2024-03-02T07:14:43;5.70;;;2.30;;
82871;SDS011;72646;43.596;1.428;2024-03-02T07:17:27;6.20;;;2.17;;
82871;SDS011;72646;43.596;1.428;2024-03-02T07:19:53;7.68;;;2.50;;
82871;SDS011;72646;43.596;1.428;2024-03-02T07:22:18;6.05;;;2.30;;
82871;SDS011;72646;43.596;1.428;2024-03-02T07:24:44;8.07;;;2.35;;
82871;SDS011;72646;43.596;1.428;2024-03-02T07:29:37;6.68;;;2.05;;
82871;SDS011;72646;43.596;1.428;2024-03-02T07:32:02;6.13;;;2.05;;
82871;SDS011;72646;43.596;1.428;2024-03-02T07:34:28;7.78;;;2.20;;
82871;SDS011;72646;43.596;1.428;2024-03-02T07:36:53;6.22;;;2.10;;
82871;SDS011;72646;43.596;1.428;2024-03-02T07:39:19;6.63;;;2.22;;
82871;SDS011;72646;43.596;1.428;2024-03-02T07:41:45;6.50;;;2.30;;
82871;SDS011;72646;43.596;1.428;2024-03-02T07:44:10;5.80;;;2.10;;
82871;SDS011;72646;43.596;1.428;2024-03-02T07:46:39;5.45;;;1.90;;
82871;SDS011;72646;43.596;1.428;2024-03-02T07:49:08;6.00;;;2.00;;
82871;SDS011;72646;43.596;1.428;2024-03-02T07:51:34;6.22;;;2.10;;
82871;SDS011;72646;43.596;1.428;2024-03-02T07:53:59;6.43;;;2.13;;
82871;SDS011;72646;43.596;1.428;2024-03-02T07:56:25;6.50;;;2.13;;
82871;SDS011;72646;43.596;1.428;2024-03-02T07:58:50;6.30;;;2.47;;
82871;SDS011;72646;43.596;1.428;2024-03-02T08:01:16;5.93;;;2.00;;
82871;SDS011;72646;43.596;1.428;2024-03-02T08:03:42;6.95;;;2.10;;
82871;SDS011;72646;43.596;1.428;2024-03-02T08:06:16;6.18;;;2.00;;
82871;SDS011;72646;43.596;1.428;2024-03-02T08:08:42;7.40;;;2.17;;
82871;SDS011;72646;43.596;1.428;2024-03-02T08:11:07;6.18;;;2.10;;
82871;SDS011;72646;43.596;1.428;2024-03-02T08:13:33;5.80;;;2.00;;
82871;SDS011;72646;43.596;1.428;2024-03-02T08:15:58;6.68;;;2.35;;
82871;SDS011;72646;43.596;1.428;2024-03-02T08:18:24;7.03;;;2.10;;
82871;SDS011;72646;43.596;1.428;2024-03-02T08:20:49;5.80;;;2.10;;
82871;SDS011;72646;43.596;1.428;2024-03-02T08:23:15;6.07;;;1.92;;
82871;SDS011;72646;43.596;1.428;2024-03-02T08:25:40;6.10;;;1.75;;
82871;SDS011;72646;43.596;1.428;2024-03-02T08:28:07;5.85;;;2.00;;
82871;SDS011;72646;43.596;1.428;2024-03-02T08:30:32;5.75;;;2.03;;
82871;SDS011;72646;43.596;1.428;2024-03-02T08:32:57;6.45;;;2.15;;
82871;SDS011;72646;43.596;1.428;2024-03-02T08:35:23;6.78;;;2.30;;
82871;SDS011;72646;43.596;1.428;2024-03-02T08:37:48;8.20;;;2.40;;
82871;SDS011;72646;43.596;1.428;2024-03-02T08:40:14;6.03;;;1.70;;
82871;SDS011;72646;43.596;1.428;2024-03-02T08:42:40;6.03;;;2.00;;
82871;SDS011;72646;43.596;1.428;2024-03-02T08:45:06;6.13;;;1.92;;
82871;SDS011;72646;43.596;1.428;2024-03-02T08:49:58;6.32;;;2.00;;
82871;SDS011;72646;43.596;1.428;2024-03-02T08:52:24;6.25;;;1.88;;
82871;SDS011;72646;43.596;1.428;2024-03-02T08:54:49;5.68;;;1.85;;
82871;SDS011;72646;43.596;1.428;2024-03-02T08:57:14;6.28;;;1.80;;
82871;SDS011;72646;43.596;1.428;2024-03-02T08:59:40;7.10;;;2.08;;
82871;SDS011;72646;43.596;1.428;2024-03-02T09:02:05;7.32;;;2.05;;
82871;SDS011;72646;43.596;1.428;2024-03-02T09:04:31;5.93;;;1.80;;
82871;SDS011;72646;43.596;1.428;2024-03-02T09:06:57;6.20;;;1.90;;
82871;SDS011;72646;43.596;1.428;2024-03-02T09:09:22;6.88;;;2.10;;
82871;SDS011;72646;43.596;1.428;2024-03-02T09:11:47;5.82;;;1.80;;
82871;SDS011;72646;43.596;1.428;2024-03-02T09:14:13;5.88;;;2.00;;
82871;SDS011;72646;43.596;1.428;2024-03-02T09:16:40;6.18;;;1.88;;
82871;SDS011;72646;43.596;1.428;2024-03-02T09:19:05;5.93;;;1.80;;
82871;SDS011;72646;43.596;1.428;2024-03-02T09:21:31;6.43;;;2.10;;
82871;SDS011;72646;43.596;1.428;2024-03-02T09:23:59;6.32;;;1.80;;
82871;SDS011;72646;43.596;1.428;2024-03-02T09:26:27;6.35;;;1.83;;
82871;SDS011;72646;43.596;1.428;2024-03-02T09:28:52;6.20;;;1.83;;
82871;SDS011;72646;43.596;1.428;2024-03-02T09:31:17;6.00;;;1.83;;
82871;SDS011;72646;43.596;1.428;2024-03-02T09:33:43;5.95;;;1.80;;
82871;SDS011;72646;43.596;1.428;2024-03-02T09:36:18;6.50;;;1.80;;
82871;SDS011;72646;43.596;1.428;2024-03-02T09:38:47;6.53;;;1.90;;
82871;SDS011;72646;43.596;1.428;2024-03-02T09:41:13;6.68;;;1.73;;
82871;SDS011;72646;43.596;1.428;2024-03-02T09:43:39;6.20;;;2.10;;
82871;SDS011;72646;43.596;1.428;2024-03-02T09:46:05;6.25;;;1.98;;
82871;SDS011;72646;43.596;1.428;2024-03-02T09:48:35;6.57;;;1.63;;
82871;SDS011;72646;43.596;1.428;2024-03-02T09:51:00;5.47;;;1.83;;
82871;SDS011;72646;43.596;1.428;2024-03-02T09:55:56;4.88;;;1.58;;
82871;SDS011;72646;43.596;1.428;2024-03-02T09:58:21;5.47;;;1.65;;
82871;SDS011;72646;43.596;1.428;2024-03-02T10:00:46;7.40;;;1.70;;
82871;SDS011;72646;43.596;1.428;2024-03-02T10:03:13;6.10;;;1.65;;
82871;SDS011;72646;43.596;1.428;2024-03-02T10:05:38;6.63;;;1.67;;
82871;SDS011;72646;43.596;1.428;2024-03-02T10:08:04;5.75;;;1.52;;
82871;SDS011;72646;43.596;1.428;2024-03-02T10:13:05;7.47;;;1.85;;
82871;SDS011;72646;43.596;1.428;2024-03-02T10:15:31;5.65;;;1.70;;
82871;SDS011;72646;43.596;1.428;2024-03-02T10:17:57;5.75;;;1.90;;
82871;SDS011;72646;43.596;1.428;2024-03-02T10:20:25;7.13;;;1.80;;
82871;SDS011;72646;43.596;1.428;2024-03-02T10:22:54;6.90;;;1.73;;
82871;SDS011;72646;43.596;1.428;2024-03-02T10:25:29;7.45;;;2.00;;
82871;SDS011;72646;43.596;1.428;2024-03-02T10:27:57;6.10;;;1.73;;
82871;SDS011;72646;43.596;1.428;2024-03-02T10:30:23;5.97;;;1.70;;
82871;SDS011;72646;43.596;1.428;2024-03-02T10:32:49;6.40;;;1.80;;
82871;SDS011;72646;43.596;1.428;2024-03-02T10:35:15;5.18;;;1.58;;
82871;SDS011;72646;43.596;1.428;2024-03-02T10:37:41;6.03;;;1.60;;
82871;SDS011;72646;43.596;1.428;2024-03-02T10:40:07;6.15;;;2.00;;
82871;SDS011;72646;43.596;1.428;2024-03-02T10:42:36;6.55;;;1.67;;
82871;SDS011;72646;43.596;1.428;2024-03-02T10:45:03;7.18;;;1.80;;
82871;SDS011;72646;43.596;1.428;2024-03-02T10:47:31;7.15;;;1.85;;
82871;SDS011;72646;43.596;1.428;2024-03-02T10:49:59;7.50;;;1.70;;
82871;SDS011;72646;43.596;1.428;2024-03-02T10:52:26;8.50;;;2.10;;
82871;SDS011;72646;43.596;1.428;2024-03-02T10:54:52;5.80;;;1.55;;
82871;SDS011;72646;43.596;1.428;2024-03-02T10:57:17;6.85;;;1.67;;
82871;SDS011;72646;43.596;1.428;2024-03-02T10:59:56;5.95;;;1.73;;
82871;SDS011;72646;43.596;1.428;2024-03-02T11:04:53;6.70;;;1.90;;
82871;SDS011;72646;43.596;1.428;2024-03-02T11:07:21;6.65;;;1.60;;
82871;SDS011;72646;43.596;1.428;2024-03-02T11:09:50;6.35;;;1.73;;
82871;SDS011;72646;43.596;1.428;2024-03-02T11:12:31;6.00;;;1.63;;
82871;SDS011;72646;43.596;1.428;2024-03-02T11:15:04;6.65;;;1.80;;
82871;SDS011;72646;43.596;1.428;2024-03-02T11:17:34;6.78;;;2.25;;
82871;SDS011;72646;43.596;1.428;2024-03-02T11:20:00;8.65;;;2.13;;
82871;SDS011;72646;43.596;1.428;2024-03-02T11:22:29;7.60;;;1.98;;
82871;SDS011;72646;43.596;1.428;2024-03-02T11:24:54;6.00;;;1.80;;
82871;SDS011;72646;43.596;1.428;2024-03-02T11:30:47;7.82;;;2.00;;
82871;SDS011;72646;43.596;1.428;2024-03-02T11:33:02;7.05;;;1.67;;
82871;SDS011;72646;43.596;1.428;2024-03-02T11:35:38;7.60;;;1.77;;
82871;SDS011;72646;43.596;1.428;2024-03-02T11:38:13;6.13;;;1.77;;
82871;SDS011;72646;43.596;1.428;2024-03-02T11:40:39;7.13;;;1.83;;
82871;SDS011;72646;43.596;1.428;2024-03-02T11:43:05;6.65;;;1.80;;
82871;SDS011;72646;43.596;1.428;2024-03-02T11:45:33;6.57;;;1.70;;
82871;SDS011;72646;43.596;1.428;2024-03-02T11:47:58;6.45;;;2.15;;
82871;SDS011;72646;43.596;1.428;2024-03-02T11:50:33;6.40;;;1.80;;
82871;SDS011;72646;43.596;1.428;2024-03-02T11:53:00;7.28;;;1.67;;
82871;SDS011;72646;43.596;1.428;2024-03-02T11:55:27;5.70;;;1.40;;
82871;SDS011;72646;43.596;1.428;2024-03-02T11:57:55;7.43;;;1.83;;
82871;SDS011;72646;43.596;1.428;2024-03-02T12:00:21;6.82;;;1.70;;
82871;SDS011;72646;43.596;1.428;2024-03-02T12:05:33;5.45;;;1.50;;
82871;SDS011;72646;43.596;1.428;2024-03-02T12:08:03;6.45;;;1.60;;
82871;SDS011;72646;43.596;1.428;2024-03-02T12:10:30;4.97;;;1.55;;
82871;SDS011;72646;43.596;1.428;2024-03-02T12:15:25;6.03;;;1.65;;
82871;SDS011;72646;43.596;1.428;2024-03-02T12:17:57;5.95;;;1.65;;
82871;SDS011;72646;43.596;1.428;2024-03-02T12:20:23;7.35;;;1.60;;
82871;SDS011;72646;43.596;1.428;2024-03-02T12:22:53;6.10;;;1.60;;
82871;SDS011;72646;43.596;1.428;2024-03-02T12:25:20;5.43;;;1.63;;
82871;SDS011;72646;43.596;1.428;2024-03-02T12:30:12;7.30;;;1.63;;
82871;SDS011;72646;43.596;1.428;2024-03-02T12:32:39;5.75;;;1.80;;
82871;SDS011;72646;43.596;1.428;2024-03-02T12:35:05;5.90;;;1.50;;
82871;SDS011;72646;43.596;1.428;2024-03-02T12:37:31;6.97;;;1.70;;
82871;SDS011;72646;43.596;1.428;2024-03-02T12:39:56;6.32;;;1.75;;
82871;SDS011;72646;43.596;1.428;2024-03-02T12:42:23;7.03;;;1.90;;
82871;SDS011;72646;43.596;1.428;2024-03-02T12:44:51;8.13;;;1.80;;
82871;SDS011;72646;43.596;1.428;2024-03-02T12:47:19;7.18;;;1.90;;
82871;SDS011;72646;43.596;1.428;2024-03-02T12:49:45;5.18;;;1.52;;
82871;SDS011;72646;43.596;1.428;2024-03-02T12:52:12;6.38;;;2.50;;
82871;SDS011;72646;43.596;1.428;2024-03-02T12:54:38;5.22;;;1.40;;
82871;SDS011;72646;43.596;1.428;2024-03-02T12:57:03;6.00;;;1.65;;
82871;SDS011;72646;43.596;1.428;2024-03-02T12:59:29;6.18;;;1.60;;
82871;SDS011;72646;43.596;1.428;2024-03-02T13:01:56;6.18;;;1.58;;
82871;SDS011;72646;43.596;1.428;2024-03-02T13:04:26;6.93;;;1.65;;
82871;SDS011;72646;43.596;1.428;2024-03-02T13:06:56;6.20;;;1.63;;
82871;SDS011;72646;43.596;1.428;2024-03-02T13:09:25;6.15;;;1.80;;
82871;SDS011;72646;43.596;1.428;2024-03-02T13:11:50;4.88;;;1.60;;
82871;SDS011;72646;43.596;1.428;2024-03-02T13:14:16;6.18;;;1.63;;
82871;SDS011;72646;43.596;1.428;2024-03-02T13:16:41;6.03;;;1.75;;
82871;SDS011;72646;43.596;1.428;2024-03-02T13:19:08;7.53;;;1.70;;
82871;SDS011;72646;43.596;1.428;2024-03-02T13:21:34;7.15;;;1.73;;
82871;SDS011;72646;43.596;1.428;2024-03-02T13:23:59;7.53;;;2.25;;
82871;SDS011;72646;43.596;1.428;2024-03-02T13:26:25;6.80;;;1.60;;
82871;SDS011;72646;43.596;1.428;2024-03-02T13:28:51;7.10;;;1.60;;
82871;SDS011;72646;43.596;1.428;2024-03-02T13:31:16;6.88;;;1.88;;
82871;SDS011;72646;43.596;1.428;2024-03-02T13:33:41;6.47;;;1.75;;
82871;SDS011;72646;43.596;1.428;2024-03-02T13:36:07;6.30;;;1.92;;
82871;SDS011;72646;43.596;1.428;2024-03-02T13:38:33;6.18;;;1.90;;
82871;SDS011;72646;43.596;1.428;2024-03-02T13:40:58;7.30;;;2.00;;
82871;SDS011;72646;43.596;1.428;2024-03-02T13:43:25;6.85;;;2.35;;
82871;SDS011;72646;43.596;1.428;2024-03-02T13:45:51;6.38;;;2.03;;
82871;SDS011;72646;43.596;1.428;2024-03-02T13:48:18;7.75;;;2.35;;
82871;SDS011;72646;43.596;1.428;2024-03-02T13:50:44;7.75;;;2.40;;
82871;SDS011;72646;43.596;1.428;2024-03-02T13:53:10;7.97;;;2.00;;
82871;SDS011;72646;43.596;1.428;2024-03-02T13:55:36;5.97;;;1.88;;
82871;SDS011;72646;43.596;1.428;2024-03-02T13:58:02;7.85;;;2.22;;
82871;SDS011;72646;43.596;1.428;2024-03-02T14:00:28;6.57;;;2.30;;
82871;SDS011;72646;43.596;1.428;2024-03-02T14:02:54;7.43;;;2.60;;
82871;SDS011;72646;43.596;1.428;2024-03-02T14:05:20;7.32;;;2.20;;
82871;SDS011;72646;43.596;1.428;2024-03-02T14:07:45;8.10;;;2.42;;
82871;SDS011;72646;43.596;1.428;2024-03-02T14:10:11;7.93;;;2.38;;
82871;SDS011;72646;43.596;1.428;2024-03-02T14:12:37;7.80;;;2.30;;
82871;SDS011;72646;43.596;1.428;2024-03-02T14:15:02;6.93;;;2.20;;
82871;SDS011;72646;43.596;1.428;2024-03-02T14:17:28;6.93;;;2.45;;
82871;SDS011;72646;43.596;1.428;2024-03-02T14:19:54;5.80;;;2.10;;
82871;SDS011;72646;43.596;1.428;2024-03-02T14:22:20;7.85;;;2.10;;
82871;SDS011;72646;43.596;1.428;2024-03-02T14:24:46;8.18;;;2.20;;
82871;SDS011;72646;43.596;1.428;2024-03-02T14:27:12;7.90;;;2.38;;
82871;SDS011;72646;43.596;1.428;2024-03-02T14:29:39;7.40;;;2.30;;
82871;SDS011;72646;43.596;1.428;2024-03-02T14:32:05;8.40;;;2.30;;
82871;SDS011;72646;43.596;1.428;2024-03-02T14:34:31;7.07;;;2.20;;
82871;SDS011;72646;43.596;1.428;2024-03-02T14:36:56;6.47;;;2.25;;
82871;SDS011;72646;43.596;1.428;2024-03-02T14:39:22;9.10;;;2.20;;
82871;SDS011;72646;43.596;1.428;2024-03-02T14:41:47;6.90;;;2.22;;
82871;SDS011;72646;43.596;1.428;2024-03-02T14:44:13;6.10;;;1.98;;
82871;SDS011;72646;43.596;1.428;2024-03-02T14:46:40;7.25;;;2.13;;
82871;SDS011;72646;43.596;1.428;2024-03-02T14:49:06;7.25;;;2.20;;
82871;SDS011;72646;43.596;1.428;2024-03-02T14:51:31;6.25;;;2.10;;
82871;SDS011;72646;43.596;1.428;2024-03-02T14:53:56;5.80;;;2.10;;
82871;SDS011;72646;43.596;1.428;2024-03-02T14:56:22;6.97;;;2.00;;
82871;SDS011;72646;43.596;1.428;2024-03-02T14:58:47;7.68;;;2.33;;
82871;SDS011;72646;43.596;1.428;2024-03-02T15:01:13;7.03;;;2.20;;
82871;SDS011;72646;43.596;1.428;2024-03-02T15:03:39;7.97;;;2.10;;
82871;SDS011;72646;43.596;1.428;2024-03-02T15:08:32;6.80;;;1.80;;
82871;SDS011;72646;43.596;1.428;2024-03-02T15:10:57;6.60;;;1.98;;
82871;SDS011;72646;43.596;1.428;2024-03-02T15:13:25;8.05;;;1.80;;
82871;SDS011;72646;43.596;1.428;2024-03-02T15:15:51;7.00;;;1.75;;
82871;SDS011;72646;43.596;1.428;2024-03-02T15:18:17;6.95;;;2.10;;
82871;SDS011;72646;43.596;1.428;2024-03-02T15:20:43;6.10;;;1.83;;